sensor_id;sensor_type;location;lat;lon;timestamp;P1;durP1;ratioP1;P2;durP2;ratioP2
67839;SDS011;54636;51.684;5.142;2023-04-16T00:02:09;11.20;;;2.70;;
67839;SDS011;54636;51.684;5.142;2023-04-16T00:04:34;4.65;;;2.63;;
67839;SDS011;54636;51.684;5.142;2023-04-16T00:07:00;10.75;;;2.50;;
67839;SDS011;54636;51.684;5.142;2023-04-16T00:09:25;6.55;;;2.17;;
67839;SDS011;54636;51.684;5.142;2023-04-16T00:11:50;7.55;;;2.28;;
67839;SDS011;54636;51.684;5.142;2023-04-16T00:14:16;4.60;;;2.20;;
67839;SDS011;54636;51.684;5.142;2023-04-16T00:16:41;9.13;;;2.95;;
67839;SDS011;54636;51.684;5.142;2023-04-16T00:19:06;6.47;;;2.60;;
67839;SDS011;54636;51.684;5.142;2023-04-16T00:21:32;7.35;;;3.00;;
67839;SDS011;54636;51.684;5.142;2023-04-16T00:23:57;9.63;;;2.88;;
67839;SDS011;54636;51.684;5.142;2023-04-16T00:26:23;5.80;;;2.80;;
67839;SDS011;54636;51.684;5.142;2023-04-16T00:28:48;10.85;;;3.05;;
67839;SDS011;54636;51.684;5.142;2023-04-16T00:31:13;9.88;;;2.90;;
67839;SDS011;54636;51.684;5.142;2023-04-16T00:33:39;7.97;;;3.28;;
67839;SDS011;54636;51.684;5.142;2023-04-16T00:36:04;10.35;;;2.75;;
67839;SDS011;54636;51.684;5.142;2023-04-16T00:38:30;11.18;;;3.22;;
67839;SDS011;54636;51.684;5.142;2023-04-16T00:40:56;8.70;;;3.47;;
67839;SDS011;54636;51.684;5.142;2023-04-16T00:43:25;11.40;;;3.15;;
67839;SDS011;54636;51.684;5.142;2023-04-16T00:45:52;9.38;;;3.17;;
67839;SDS011;54636;51.684;5.142;2023-04-16T00:48:20;10.40;;;2.90;;
67839;SDS011;54636;51.684;5.142;2023-04-16T00:50:46;9.55;;;3.00;;
67839;SDS011;54636;51.684;5.142;2023-04-16T00:53:12;7.53;;;3.05;;
67839;SDS011;54636;51.684;5.142;2023-04-16T00:55:38;6.78;;;3.63;;
67839;SDS011;54636;51.684;5.142;2023-04-16T00:58:04;6.80;;;3.22;;
67839;SDS011;54636;51.684;5.142;2023-04-16T01:00:30;4.68;;;2.83;;
67839;SDS011;54636;51.684;5.142;2023-04-16T01:02:55;7.18;;;3.35;;
67839;SDS011;54636;51.684;5.142;2023-04-16T01:05:21;7.80;;;2.83;;
67839;SDS011;54636;51.684;5.142;2023-04-16T01:07:49;5.10;;;2.83;;
67839;SDS011;54636;51.684;5.142;2023-04-16T01:10:14;10.02;;;3.70;;
67839;SDS011;54636;51.684;5.142;2023-04-16T01:12:40;8.68;;;3.33;;
67839;SDS011;54636;51.684;5.142;2023-04-16T01:15:05;9.20;;;3.22;;
67839;SDS011;54636;51.684;5.142;2023-04-16T01:17:31;8.48;;;3.10;;
67839;SDS011;54636;51.684;5.142;2023-04-16T01:19:58;6.50;;;2.53;;
67839;SDS011;54636;51.684;5.142;2023-04-16T01:22:24;3.72;;;2.70;;
67839;SDS011;54636;51.684;5.142;2023-04-16T01:24:49;5.68;;;2.58;;
67839;SDS011;54636;51.684;5.142;2023-04-16T01:27:14;7.70;;;3.05;;
67839;SDS011;54636;51.684;5.142;2023-04-16T01:29:40;8.10;;;3.55;;
67839;SDS011;54636;51.684;5.142;2023-04-16T01:32:05;5.50;;;3.05;;
67839;SDS011;54636;51.684;5.142;2023-04-16T01:34:31;7.30;;;2.83;;
67839;SDS011;54636;51.684;5.142;2023-04-16T01:36:56;6.00;;;2.70;;
67839;SDS011;54636;51.684;5.142;2023-04-16T01:39:22;11.15;;;3.00;;
67839;SDS011;54636;51.684;5.142;2023-04-16T01:41:47;4.65;;;2.42;;
67839;SDS011;54636;51.684;5.142;2023-04-16T01:44:13;4.28;;;2.65;;
67839;SDS011;54636;51.684;5.142;2023-04-16T01:46:38;6.65;;;2.70;;
67839;SDS011;54636;51.684;5.142;2023-04-16T01:49:04;6.30;;;2.85;;
67839;SDS011;54636;51.684;5.142;2023-04-16T01:51:31;6.10;;;2.75;;
67839;SDS011;54636;51.684;5.142;2023-04-16T01:53:57;11.45;;;2.42;;
67839;SDS011;54636;51.684;5.142;2023-04-16T01:56:22;5.32;;;2.92;;
67839;SDS011;54636;51.684;5.142;2023-04-16T01:58:48;4.97;;;2.90;;
67839;SDS011;54636;51.684;5.142;2023-04-16T02:01:13;6.10;;;2.75;;
67839;SDS011;54636;51.684;5.142;2023-04-16T02:03:39;7.18;;;3.03;;
67839;SDS011;54636;51.684;5.142;2023-04-16T02:06:04;6.22;;;2.63;;
67839;SDS011;54636;51.684;5.142;2023-04-16T02:08:30;7.07;;;3.25;;
67839;SDS011;54636;51.684;5.142;2023-04-16T02:10:55;3.08;;;2.75;;
67839;SDS011;54636;51.684;5.142;2023-04-16T02:13:21;4.70;;;3.10;;
67839;SDS011;54636;51.684;5.142;2023-04-16T02:15:49;9.32;;;3.63;;
67839;SDS011;54636;51.684;5.142;2023-04-16T02:18:15;9.65;;;3.80;;
67839;SDS011;54636;51.684;5.142;2023-04-16T02:20:44;8.20;;;3.55;;
67839;SDS011;54636;51.684;5.142;2023-04-16T02:23:11;7.28;;;4.45;;
67839;SDS011;54636;51.684;5.142;2023-04-16T02:25:42;7.97;;;4.10;;
67839;SDS011;54636;51.684;5.142;2023-04-16T02:28:09;5.78;;;4.97;;
67839;SDS011;54636;51.684;5.142;2023-04-16T02:30:36;10.57;;;4.45;;
67839;SDS011;54636;51.684;5.142;2023-04-16T02:33:03;7.78;;;4.53;;
67839;SDS011;54636;51.684;5.142;2023-04-16T02:35:35;5.90;;;4.65;;
67839;SDS011;54636;51.684;5.142;2023-04-16T02:38:01;12.15;;;5.30;;
67839;SDS011;54636;51.684;5.142;2023-04-16T02:40:28;10.32;;;5.85;;
67839;SDS011;54636;51.684;5.142;2023-04-16T02:42:53;9.98;;;4.63;;
67839;SDS011;54636;51.684;5.142;2023-04-16T02:45:19;11.43;;;6.32;;
67839;SDS011;54636;51.684;5.142;2023-04-16T02:47:45;8.25;;;6.00;;
67839;SDS011;54636;51.684;5.142;2023-04-16T02:50:14;10.35;;;6.18;;
67839;SDS011;54636;51.684;5.142;2023-04-16T02:52:40;7.57;;;5.85;;
67839;SDS011;54636;51.684;5.142;2023-04-16T02:55:06;10.63;;;5.65;;
67839;SDS011;54636;51.684;5.142;2023-04-16T02:57:32;9.10;;;6.35;;
67839;SDS011;54636;51.684;5.142;2023-04-16T02:59:57;10.10;;;5.70;;
67839;SDS011;54636;51.684;5.142;2023-04-16T03:02:23;9.88;;;5.50;;
67839;SDS011;54636;51.684;5.142;2023-04-16T03:04:48;12.35;;;5.90;;
67839;SDS011;54636;51.684;5.142;2023-04-16T03:07:14;11.57;;;5.30;;
67839;SDS011;54636;51.684;5.142;2023-04-16T03:09:39;7.57;;;5.13;;
67839;SDS011;54636;51.684;5.142;2023-04-16T03:12:04;8.00;;;5.07;;
67839;SDS011;54636;51.684;5.142;2023-04-16T03:14:30;11.35;;;5.95;;
67839;SDS011;54636;51.684;5.142;2023-04-16T03:16:56;9.52;;;4.80;;
67839;SDS011;54636;51.684;5.142;2023-04-16T03:19:21;9.90;;;5.40;;
67839;SDS011;54636;51.684;5.142;2023-04-16T03:21:47;10.80;;;5.40;;
67839;SDS011;54636;51.684;5.142;2023-04-16T03:24:12;11.90;;;5.72;;
67839;SDS011;54636;51.684;5.142;2023-04-16T03:26:38;10.88;;;5.57;;
67839;SDS011;54636;51.684;5.142;2023-04-16T03:29:03;13.32;;;6.22;;
67839;SDS011;54636;51.684;5.142;2023-04-16T03:31:29;16.17;;;6.20;;
67839;SDS011;54636;51.684;5.142;2023-04-16T03:33:54;16.73;;;6.38;;
67839;SDS011;54636;51.684;5.142;2023-04-16T03:36:20;9.90;;;5.82;;
67839;SDS011;54636;51.684;5.142;2023-04-16T03:38:47;16.50;;;6.05;;
67839;SDS011;54636;51.684;5.142;2023-04-16T03:41:12;12.60;;;5.90;;
67839;SDS011;54636;51.684;5.142;2023-04-16T03:43:38;12.77;;;5.47;;
67839;SDS011;54636;51.684;5.142;2023-04-16T03:46:03;19.77;;;6.90;;
67839;SDS011;54636;51.684;5.142;2023-04-16T03:48:29;21.85;;;6.85;;
67839;SDS011;54636;51.684;5.142;2023-04-16T03:50:54;9.93;;;6.50;;
67839;SDS011;54636;51.684;5.142;2023-04-16T03:53:19;17.95;;;7.32;;
67839;SDS011;54636;51.684;5.142;2023-04-16T03:55:48;12.57;;;6.93;;
67839;SDS011;54636;51.684;5.142;2023-04-16T04:00:40;19.90;;;7.07;;
67839;SDS011;54636;51.684;5.142;2023-04-16T04:03:07;28.67;;;8.35;;
67839;SDS011;54636;51.684;5.142;2023-04-16T04:05:36;17.48;;;7.63;;
67839;SDS011;54636;51.684;5.142;2023-04-16T04:08:02;12.52;;;7.00;;
67839;SDS011;54636;51.684;5.142;2023-04-16T04:10:27;19.88;;;8.00;;
67839;SDS011;54636;51.684;5.142;2023-04-16T04:12:55;16.27;;;7.93;;
67839;SDS011;54636;51.684;5.142;2023-04-16T04:15:20;26.70;;;8.00;;
67839;SDS011;54636;51.684;5.142;2023-04-16T04:17:46;14.38;;;7.00;;
67839;SDS011;54636;51.684;5.142;2023-04-16T04:20:11;20.50;;;7.68;;
67839;SDS011;54636;51.684;5.142;2023-04-16T04:22:36;15.45;;;6.80;;
67839;SDS011;54636;51.684;5.142;2023-04-16T04:25:02;14.57;;;6.00;;
67839;SDS011;54636;51.684;5.142;2023-04-16T04:27:27;19.83;;;6.95;;
67839;SDS011;54636;51.684;5.142;2023-04-16T04:29:53;18.42;;;8.57;;
67839;SDS011;54636;51.684;5.142;2023-04-16T04:32:18;22.15;;;7.68;;
67839;SDS011;54636;51.684;5.142;2023-04-16T04:34:43;14.20;;;7.35;;
67839;SDS011;54636;51.684;5.142;2023-04-16T04:37:09;17.00;;;7.32;;
67839;SDS011;54636;51.684;5.142;2023-04-16T04:39:34;15.65;;;7.38;;
67839;SDS011;54636;51.684;5.142;2023-04-16T04:42:00;25.33;;;7.70;;
67839;SDS011;54636;51.684;5.142;2023-04-16T04:44:27;19.23;;;7.80;;
67839;SDS011;54636;51.684;5.142;2023-04-16T04:46:52;20.02;;;7.72;;
67839;SDS011;54636;51.684;5.142;2023-04-16T04:49:17;23.35;;;9.27;;
67839;SDS011;54636;51.684;5.142;2023-04-16T04:51:43;23.95;;;8.63;;
67839;SDS011;54636;51.684;5.142;2023-04-16T04:54:08;28.92;;;8.68;;
67839;SDS011;54636;51.684;5.142;2023-04-16T04:56:34;18.23;;;8.13;;
67839;SDS011;54636;51.684;5.142;2023-04-16T04:58:59;22.35;;;7.63;;
67839;SDS011;54636;51.684;5.142;2023-04-16T05:01:24;22.67;;;8.65;;
67839;SDS011;54636;51.684;5.142;2023-04-16T05:03:50;11.23;;;6.22;;
67839;SDS011;54636;51.684;5.142;2023-04-16T05:06:16;17.23;;;7.97;;
67839;SDS011;54636;51.684;5.142;2023-04-16T05:08:41;21.02;;;7.18;;
67839;SDS011;54636;51.684;5.142;2023-04-16T05:11:06;10.73;;;6.43;;
67839;SDS011;54636;51.684;5.142;2023-04-16T05:13:32;14.43;;;7.00;;
67839;SDS011;54636;51.684;5.142;2023-04-16T05:15:57;16.80;;;6.25;;
67839;SDS011;54636;51.684;5.142;2023-04-16T05:18:22;21.50;;;8.73;;
67839;SDS011;54636;51.684;5.142;2023-04-16T05:20:48;15.60;;;7.50;;
67839;SDS011;54636;51.684;5.142;2023-04-16T05:23:13;20.27;;;7.50;;
67839;SDS011;54636;51.684;5.142;2023-04-16T05:25:39;17.85;;;7.65;;
67839;SDS011;54636;51.684;5.142;2023-04-16T05:28:05;11.07;;;7.10;;
67839;SDS011;54636;51.684;5.142;2023-04-16T05:30:30;13.35;;;7.10;;
67839;SDS011;54636;51.684;5.142;2023-04-16T05:32:55;17.65;;;7.55;;
67839;SDS011;54636;51.684;5.142;2023-04-16T05:35:21;15.73;;;8.27;;
67839;SDS011;54636;51.684;5.142;2023-04-16T05:37:46;11.20;;;7.35;;
67839;SDS011;54636;51.684;5.142;2023-04-16T05:40:12;15.68;;;8.02;;
67839;SDS011;54636;51.684;5.142;2023-04-16T05:42:38;15.88;;;7.72;;
67839;SDS011;54636;51.684;5.142;2023-04-16T05:45:03;13.77;;;8.95;;
67839;SDS011;54636;51.684;5.142;2023-04-16T05:47:29;13.75;;;8.43;;
67839;SDS011;54636;51.684;5.142;2023-04-16T05:49:55;18.40;;;7.28;;
67839;SDS011;54636;51.684;5.142;2023-04-16T05:52:20;18.83;;;8.25;;
67839;SDS011;54636;51.684;5.142;2023-04-16T05:54:45;16.08;;;8.23;;
67839;SDS011;54636;51.684;5.142;2023-04-16T05:57:12;12.75;;;7.68;;
67839;SDS011;54636;51.684;5.142;2023-04-16T05:59:38;16.15;;;8.05;;
67839;SDS011;54636;51.684;5.142;2023-04-16T06:02:03;14.20;;;7.18;;
67839;SDS011;54636;51.684;5.142;2023-04-16T06:04:28;12.75;;;7.13;;
67839;SDS011;54636;51.684;5.142;2023-04-16T06:06:55;16.52;;;6.88;;
67839;SDS011;54636;51.684;5.142;2023-04-16T06:09:20;19.10;;;7.32;;
67839;SDS011;54636;51.684;5.142;2023-04-16T06:11:46;17.00;;;8.52;;
67839;SDS011;54636;51.684;5.142;2023-04-16T06:14:11;14.65;;;7.70;;
67839;SDS011;54636;51.684;5.142;2023-04-16T06:16:37;12.55;;;7.57;;
67839;SDS011;54636;51.684;5.142;2023-04-16T06:19:02;17.20;;;7.90;;
67839;SDS011;54636;51.684;5.142;2023-04-16T06:21:27;16.08;;;8.05;;
67839;SDS011;54636;51.684;5.142;2023-04-16T06:23:53;15.57;;;8.13;;
67839;SDS011;54636;51.684;5.142;2023-04-16T06:26:20;16.00;;;8.32;;
67839;SDS011;54636;51.684;5.142;2023-04-16T06:28:45;14.23;;;7.55;;
67839;SDS011;54636;51.684;5.142;2023-04-16T06:31:10;14.05;;;7.57;;
67839;SDS011;54636;51.684;5.142;2023-04-16T06:33:36;15.98;;;7.82;;
67839;SDS011;54636;51.684;5.142;2023-04-16T06:36:01;17.38;;;7.90;;
67839;SDS011;54636;51.684;5.142;2023-04-16T06:38:27;19.48;;;9.25;;
67839;SDS011;54636;51.684;5.142;2023-04-16T06:40:52;18.48;;;9.18;;
67839;SDS011;54636;51.684;5.142;2023-04-16T06:43:17;23.77;;;9.30;;
67839;SDS011;54636;51.684;5.142;2023-04-16T06:45:43;19.92;;;8.70;;
67839;SDS011;54636;51.684;5.142;2023-04-16T06:48:08;22.25;;;10.07;;
67839;SDS011;54636;51.684;5.142;2023-04-16T06:50:34;19.70;;;11.52;;
67839;SDS011;54636;51.684;5.142;2023-04-16T06:52:59;26.42;;;9.77;;
67839;SDS011;54636;51.684;5.142;2023-04-16T06:55:24;23.65;;;11.05;;
67839;SDS011;54636;51.684;5.142;2023-04-16T06:57:50;29.77;;;10.88;;
67839;SDS011;54636;51.684;5.142;2023-04-16T07:00:15;29.88;;;11.80;;
67839;SDS011;54636;51.684;5.142;2023-04-16T07:02:41;25.77;;;12.13;;
67839;SDS011;54636;51.684;5.142;2023-04-16T07:05:06;30.00;;;11.23;;
67839;SDS011;54636;51.684;5.142;2023-04-16T07:07:33;24.88;;;11.25;;
67839;SDS011;54636;51.684;5.142;2023-04-16T07:09:58;28.35;;;12.80;;
67839;SDS011;54636;51.684;5.142;2023-04-16T07:12:24;22.67;;;10.32;;
67839;SDS011;54636;51.684;5.142;2023-04-16T07:14:49;28.38;;;10.02;;
67839;SDS011;54636;51.684;5.142;2023-04-16T07:17:15;22.90;;;10.95;;
67839;SDS011;54636;51.684;5.142;2023-04-16T07:19:40;23.17;;;11.05;;
67839;SDS011;54636;51.684;5.142;2023-04-16T07:22:06;20.52;;;10.35;;
67839;SDS011;54636;51.684;5.142;2023-04-16T07:24:31;26.50;;;11.15;;
67839;SDS011;54636;51.684;5.142;2023-04-16T07:26:56;22.38;;;9.90;;
67839;SDS011;54636;51.684;5.142;2023-04-16T07:29:22;22.33;;;10.77;;
67839;SDS011;54636;51.684;5.142;2023-04-16T07:31:47;28.15;;;10.15;;
67839;SDS011;54636;51.684;5.142;2023-04-16T07:34:13;23.48;;;10.90;;
67839;SDS011;54636;51.684;5.142;2023-04-16T07:36:38;19.65;;;10.88;;
67839;SDS011;54636;51.684;5.142;2023-04-16T07:39:03;27.20;;;10.93;;
67839;SDS011;54636;51.684;5.142;2023-04-16T07:41:32;21.63;;;10.30;;
67839;SDS011;54636;51.684;5.142;2023-04-16T07:43:57;20.77;;;10.70;;
67839;SDS011;54636;51.684;5.142;2023-04-16T07:46:23;20.27;;;9.48;;
67839;SDS011;54636;51.684;5.142;2023-04-16T07:48:48;18.80;;;10.80;;
67839;SDS011;54636;51.684;5.142;2023-04-16T07:51:14;18.77;;;9.90;;
67839;SDS011;54636;51.684;5.142;2023-04-16T07:53:39;20.67;;;10.02;;
67839;SDS011;54636;51.684;5.142;2023-04-16T07:56:06;21.10;;;10.55;;
67839;SDS011;54636;51.684;5.142;2023-04-16T07:58:31;16.38;;;9.45;;
67839;SDS011;54636;51.684;5.142;2023-04-16T08:00:57;20.80;;;9.52;;
67839;SDS011;54636;51.684;5.142;2023-04-16T08:03:22;18.60;;;9.98;;
67839;SDS011;54636;51.684;5.142;2023-04-16T08:05:48;16.20;;;9.07;;
67839;SDS011;54636;51.684;5.142;2023-04-16T08:08:13;21.65;;;9.70;;
67839;SDS011;54636;51.684;5.142;2023-04-16T08:10:39;17.23;;;9.27;;
67839;SDS011;54636;51.684;5.142;2023-04-16T08:13:04;16.20;;;8.32;;
67839;SDS011;54636;51.684;5.142;2023-04-16T08:15:29;19.80;;;10.35;;
67839;SDS011;54636;51.684;5.142;2023-04-16T08:17:55;16.05;;;8.95;;
67839;SDS011;54636;51.684;5.142;2023-04-16T08:20:20;19.70;;;9.55;;
67839;SDS011;54636;51.684;5.142;2023-04-16T08:22:46;14.15;;;9.05;;
67839;SDS011;54636;51.684;5.142;2023-04-16T08:25:12;20.13;;;9.57;;
67839;SDS011;54636;51.684;5.142;2023-04-16T08:27:38;20.05;;;9.82;;
67839;SDS011;54636;51.684;5.142;2023-04-16T08:30:04;20.23;;;10.27;;
67839;SDS011;54636;51.684;5.142;2023-04-16T08:32:30;19.55;;;10.30;;
67839;SDS011;54636;51.684;5.142;2023-04-16T08:34:56;17.17;;;9.85;;
67839;SDS011;54636;51.684;5.142;2023-04-16T08:37:21;22.70;;;10.43;;
67839;SDS011;54636;51.684;5.142;2023-04-16T08:39:46;22.17;;;10.77;;
67839;SDS011;54636;51.684;5.142;2023-04-16T08:42:16;19.95;;;10.75;;
67839;SDS011;54636;51.684;5.142;2023-04-16T08:44:47;27.38;;;11.82;;
67839;SDS011;54636;51.684;5.142;2023-04-16T08:47:14;16.88;;;10.80;;
67839;SDS011;54636;51.684;5.142;2023-04-16T08:49:43;23.23;;;11.43;;
67839;SDS011;54636;51.684;5.142;2023-04-16T08:52:17;16.65;;;10.23;;
67839;SDS011;54636;51.684;5.142;2023-04-16T08:54:55;23.48;;;11.38;;
67839;SDS011;54636;51.684;5.142;2023-04-16T08:57:44;19.98;;;10.48;;
67839;SDS011;54636;51.684;5.142;2023-04-16T09:00:11;16.30;;;9.43;;
67839;SDS011;54636;51.684;5.142;2023-04-16T09:02:38;24.27;;;11.02;;
67839;SDS011;54636;51.684;5.142;2023-04-16T09:05:04;18.55;;;10.48;;
67839;SDS011;54636;51.684;5.142;2023-04-16T09:07:31;15.48;;;10.82;;
67839;SDS011;54636;51.684;5.142;2023-04-16T09:09:58;20.63;;;12.10;;
67839;SDS011;54636;51.684;5.142;2023-04-16T09:12:25;17.15;;;10.75;;
67839;SDS011;54636;51.684;5.142;2023-04-16T09:14:50;17.38;;;10.35;;
67839;SDS011;54636;51.684;5.142;2023-04-16T09:17:19;17.70;;;10.57;;
67839;SDS011;54636;51.684;5.142;2023-04-16T09:19:44;21.02;;;10.50;;
67839;SDS011;54636;51.684;5.142;2023-04-16T09:22:10;22.38;;;10.68;;
67839;SDS011;54636;51.684;5.142;2023-04-16T09:24:36;21.27;;;10.45;;
67839;SDS011;54636;51.684;5.142;2023-04-16T09:27:02;22.23;;;11.15;;
67839;SDS011;54636;51.684;5.142;2023-04-16T09:29:34;19.42;;;10.75;;
67839;SDS011;54636;51.684;5.142;2023-04-16T09:32:02;21.63;;;10.07;;
67839;SDS011;54636;51.684;5.142;2023-04-16T09:34:30;14.02;;;10.48;;
67839;SDS011;54636;51.684;5.142;2023-04-16T09:37:12;21.10;;;10.27;;
67839;SDS011;54636;51.684;5.142;2023-04-16T09:39:39;17.30;;;10.05;;
67839;SDS011;54636;51.684;5.142;2023-04-16T09:42:06;20.67;;;11.50;;
67839;SDS011;54636;51.684;5.142;2023-04-16T09:44:35;16.17;;;10.10;;
67839;SDS011;54636;51.684;5.142;2023-04-16T09:47:05;13.38;;;9.75;;
67839;SDS011;54636;51.684;5.142;2023-04-16T09:49:36;16.27;;;9.88;;
67839;SDS011;54636;51.684;5.142;2023-04-16T09:52:12;15.60;;;9.65;;
67839;SDS011;54636;51.684;5.142;2023-04-16T09:54:49;17.85;;;10.18;;
67839;SDS011;54636;51.684;5.142;2023-04-16T09:57:19;13.60;;;9.32;;
67839;SDS011;54636;51.684;5.142;2023-04-16T10:02:12;16.40;;;8.52;;
67839;SDS011;54636;51.684;5.142;2023-04-16T10:04:44;12.05;;;8.55;;
67839;SDS011;54636;51.684;5.142;2023-04-16T10:07:16;18.88;;;8.85;;
67839;SDS011;54636;51.684;5.142;2023-04-16T10:09:42;22.25;;;9.75;;
67839;SDS011;54636;51.684;5.142;2023-04-16T10:12:08;16.55;;;9.00;;
67839;SDS011;54636;51.684;5.142;2023-04-16T10:14:34;16.55;;;10.38;;
67839;SDS011;54636;51.684;5.142;2023-04-16T10:17:00;16.75;;;9.88;;
67839;SDS011;54636;51.684;5.142;2023-04-16T10:19:27;18.88;;;9.98;;
67839;SDS011;54636;51.684;5.142;2023-04-16T10:21:55;20.05;;;11.00;;
67839;SDS011;54636;51.684;5.142;2023-04-16T10:24:25;19.83;;;10.73;;
67839;SDS011;54636;51.684;5.142;2023-04-16T10:26:51;18.63;;;11.10;;
67839;SDS011;54636;51.684;5.142;2023-04-16T10:29:17;12.25;;;9.85;;
67839;SDS011;54636;51.684;5.142;2023-04-16T10:31:44;15.35;;;10.50;;
67839;SDS011;54636;51.684;5.142;2023-04-16T10:34:11;14.15;;;9.40;;
67839;SDS011;54636;51.684;5.142;2023-04-16T10:36:38;16.60;;;9.98;;
67839;SDS011;54636;51.684;5.142;2023-04-16T10:39:09;19.17;;;10.95;;
67839;SDS011;54636;51.684;5.142;2023-04-16T10:41:37;25.25;;;12.07;;
67839;SDS011;54636;51.684;5.142;2023-04-16T10:44:04;20.80;;;11.38;;
67839;SDS011;54636;51.684;5.142;2023-04-16T10:46:46;20.55;;;11.75;;
67839;SDS011;54636;51.684;5.142;2023-04-16T10:49:24;15.73;;;10.88;;
67839;SDS011;54636;51.684;5.142;2023-04-16T10:51:57;16.45;;;11.68;;
67839;SDS011;54636;51.684;5.142;2023-04-16T10:54:34;16.02;;;11.90;;
67839;SDS011;54636;51.684;5.142;2023-04-16T10:57:03;19.83;;;11.40;;
67839;SDS011;54636;51.684;5.142;2023-04-16T10:59:34;17.58;;;11.02;;
67839;SDS011;54636;51.684;5.142;2023-04-16T11:02:07;14.52;;;11.45;;
67839;SDS011;54636;51.684;5.142;2023-04-16T11:04:38;12.00;;;9.93;;
67839;SDS011;54636;51.684;5.142;2023-04-16T11:07:11;16.23;;;10.20;;
67839;SDS011;54636;51.684;5.142;2023-04-16T11:12:15;17.58;;;11.48;;
67839;SDS011;54636;51.684;5.142;2023-04-16T11:14:43;17.50;;;11.35;;
67839;SDS011;54636;51.684;5.142;2023-04-16T11:17:13;14.23;;;10.80;;
67839;SDS011;54636;51.684;5.142;2023-04-16T11:19:38;20.45;;;10.63;;
67839;SDS011;54636;51.684;5.142;2023-04-16T11:22:04;17.63;;;10.68;;
67839;SDS011;54636;51.684;5.142;2023-04-16T11:24:32;19.27;;;10.70;;
67839;SDS011;54636;51.684;5.142;2023-04-16T11:26:58;16.95;;;9.80;;
67839;SDS011;54636;51.684;5.142;2023-04-16T11:29:23;15.13;;;10.00;;
67839;SDS011;54636;51.684;5.142;2023-04-16T11:31:49;16.05;;;10.07;;
67839;SDS011;54636;51.684;5.142;2023-04-16T11:34:18;11.73;;;8.55;;
67839;SDS011;54636;51.684;5.142;2023-04-16T11:36:48;14.70;;;8.52;;
67839;SDS011;54636;51.684;5.142;2023-04-16T11:39:15;16.25;;;8.90;;
67839;SDS011;54636;51.684;5.142;2023-04-16T11:41:45;13.50;;;8.85;;
67839;SDS011;54636;51.684;5.142;2023-04-16T11:46:47;12.30;;;8.40;;
67839;SDS011;54636;51.684;5.142;2023-04-16T11:49:13;10.50;;;8.82;;
67839;SDS011;54636;51.684;5.142;2023-04-16T11:51:41;16.83;;;10.77;;
67839;SDS011;54636;51.684;5.142;2023-04-16T11:54:08;15.98;;;9.55;;
67839;SDS011;54636;51.684;5.142;2023-04-16T11:56:34;11.82;;;8.85;;
67839;SDS011;54636;51.684;5.142;2023-04-16T11:59:07;13.48;;;8.45;;
67839;SDS011;54636;51.684;5.142;2023-04-16T12:01:35;11.95;;;9.05;;
67839;SDS011;54636;51.684;5.142;2023-04-16T12:04:02;13.93;;;8.43;;
67839;SDS011;54636;51.684;5.142;2023-04-16T12:06:28;16.63;;;8.48;;
67839;SDS011;54636;51.684;5.142;2023-04-16T12:08:54;15.85;;;8.80;;
67839;SDS011;54636;51.684;5.142;2023-04-16T12:11:19;12.77;;;8.95;;
67839;SDS011;54636;51.684;5.142;2023-04-16T12:16:33;9.95;;;8.23;;
67839;SDS011;54636;51.684;5.142;2023-04-16T12:18:59;9.57;;;8.02;;
67839;SDS011;54636;51.684;5.142;2023-04-16T12:21:47;12.93;;;8.15;;
67839;SDS011;54636;51.684;5.142;2023-04-16T12:24:15;11.55;;;7.97;;
67839;SDS011;54636;51.684;5.142;2023-04-16T12:26:45;12.85;;;8.88;;
67839;SDS011;54636;51.684;5.142;2023-04-16T12:29:13;12.65;;;8.93;;
67839;SDS011;54636;51.684;5.142;2023-04-16T12:31:43;17.35;;;9.50;;
67839;SDS011;54636;51.684;5.142;2023-04-16T12:34:09;22.55;;;9.57;;
67839;SDS011;54636;51.684;5.142;2023-04-16T12:36:34;15.93;;;8.65;;
67839;SDS011;54636;51.684;5.142;2023-04-16T12:39:00;14.13;;;8.73;;
67839;SDS011;54636;51.684;5.142;2023-04-16T12:41:26;13.93;;;9.00;;
67839;SDS011;54636;51.684;5.142;2023-04-16T12:43:51;13.13;;;9.07;;
67839;SDS011;54636;51.684;5.142;2023-04-16T12:46:17;10.30;;;8.32;;
67839;SDS011;54636;51.684;5.142;2023-04-16T12:48:42;10.95;;;8.40;;
67839;SDS011;54636;51.684;5.142;2023-04-16T12:51:07;13.73;;;8.95;;
67839;SDS011;54636;51.684;5.142;2023-04-16T12:53:33;17.95;;;9.00;;
67839;SDS011;54636;51.684;5.142;2023-04-16T12:55:59;11.32;;;9.68;;
67839;SDS011;54636;51.684;5.142;2023-04-16T12:58:24;11.98;;;8.95;;
67839;SDS011;54636;51.684;5.142;2023-04-16T13:00:50;13.35;;;9.10;;
67839;SDS011;54636;51.684;5.142;2023-04-16T13:03:15;13.52;;;9.57;;
67839;SDS011;54636;51.684;5.142;2023-04-16T13:05:41;11.27;;;8.40;;
67839;SDS011;54636;51.684;5.142;2023-04-16T13:08:06;13.82;;;10.55;;
67839;SDS011;54636;51.684;5.142;2023-04-16T13:10:32;14.20;;;9.45;;
67839;SDS011;54636;51.684;5.142;2023-04-16T13:12:57;10.90;;;9.00;;
67839;SDS011;54636;51.684;5.142;2023-04-16T13:15:22;13.30;;;9.38;;
67839;SDS011;54636;51.684;5.142;2023-04-16T13:17:48;16.33;;;9.80;;
67839;SDS011;54636;51.684;5.142;2023-04-16T13:20:13;13.85;;;9.95;;
67839;SDS011;54636;51.684;5.142;2023-04-16T13:22:39;12.93;;;9.70;;
67839;SDS011;54636;51.684;5.142;2023-04-16T13:25:04;16.55;;;10.50;;
67839;SDS011;54636;51.684;5.142;2023-04-16T13:27:30;16.02;;;10.48;;
67839;SDS011;54636;51.684;5.142;2023-04-16T13:29:56;16.83;;;11.05;;
67839;SDS011;54636;51.684;5.142;2023-04-16T13:32:21;12.93;;;10.95;;
67839;SDS011;54636;51.684;5.142;2023-04-16T13:34:47;13.25;;;11.70;;
67839;SDS011;54636;51.684;5.142;2023-04-16T13:37:12;14.13;;;10.60;;
67839;SDS011;54636;51.684;5.142;2023-04-16T13:39:38;16.52;;;10.93;;
67839;SDS011;54636;51.684;5.142;2023-04-16T13:42:03;17.10;;;10.15;;
67839;SDS011;54636;51.684;5.142;2023-04-16T13:44:29;13.50;;;10.80;;
67839;SDS011;54636;51.684;5.142;2023-04-16T13:46:54;14.52;;;10.55;;
67839;SDS011;54636;51.684;5.142;2023-04-16T13:49:20;17.67;;;11.43;;
67839;SDS011;54636;51.684;5.142;2023-04-16T13:51:46;20.02;;;10.73;;
67839;SDS011;54636;51.684;5.142;2023-04-16T13:54:12;18.52;;;11.60;;
67839;SDS011;54636;51.684;5.142;2023-04-16T13:56:37;14.57;;;12.07;;
67839;SDS011;54636;51.684;5.142;2023-04-16T13:59:03;15.48;;;10.65;;
67839;SDS011;54636;51.684;5.142;2023-04-16T14:01:29;17.10;;;11.38;;
67839;SDS011;54636;51.684;5.142;2023-04-16T14:03:54;15.02;;;10.35;;
67839;SDS011;54636;51.684;5.142;2023-04-16T14:06:20;20.65;;;11.00;;
67839;SDS011;54636;51.684;5.142;2023-04-16T14:08:45;16.70;;;11.02;;
67839;SDS011;54636;51.684;5.142;2023-04-16T14:11:11;14.88;;;12.52;;
67839;SDS011;54636;51.684;5.142;2023-04-16T14:13:36;21.98;;;12.77;;
67839;SDS011;54636;51.684;5.142;2023-04-16T14:16:02;17.58;;;12.18;;
67839;SDS011;54636;51.684;5.142;2023-04-16T14:18:27;15.18;;;10.55;;
67839;SDS011;54636;51.684;5.142;2023-04-16T14:20:53;13.07;;;10.68;;
67839;SDS011;54636;51.684;5.142;2023-04-16T14:23:18;17.80;;;11.63;;
67839;SDS011;54636;51.684;5.142;2023-04-16T14:25:43;13.75;;;10.98;;
67839;SDS011;54636;51.684;5.142;2023-04-16T14:28:09;12.00;;;10.00;;
67839;SDS011;54636;51.684;5.142;2023-04-16T14:30:35;16.83;;;11.35;;
67839;SDS011;54636;51.684;5.142;2023-04-16T14:33:00;14.45;;;11.05;;
67839;SDS011;54636;51.684;5.142;2023-04-16T14:35:25;18.17;;;11.15;;
67839;SDS011;54636;51.684;5.142;2023-04-16T14:37:51;16.33;;;11.52;;
67839;SDS011;54636;51.684;5.142;2023-04-16T14:40:16;21.30;;;12.52;;
67839;SDS011;54636;51.684;5.142;2023-04-16T14:42:42;23.17;;;16.38;;